This is the latest recevied weather packets stored in our database for station/object JE7UPL-13. If no packets are shown the sender has not sent any weather packets the latest 10 day(s).
| Time | Temp. | Humidity | Pressure | Rain* | Wind** | Luminosity | Snow |
|---|---|---|---|---|---|---|---|
| 1777732205 | 8.89° C | 51% | 1005.6 hPa | 0 mm | - | - | - |
| 1777731305 | 10° C | 44% | 1005.7 hPa | 0 mm | - | - | - |
| 1777730406 | 10° C | 42% | 1005.7 hPa | 0 mm | - | - | - |
| 1777729505 | 10.56° C | 38% | 1005.8 hPa | 0 mm | - | - | - |
| 1777728606 | 11.11° C | 34% | 1005.9 hPa | 0 mm | - | - | - |
| 1777727705 | 11.67° C | 31% | 1005.6 hPa | 0 mm | - | - | - |
| 1777726805 | 11.67° C | 30% | 1005.7 hPa | 0 mm | - | - | - |
| 1777725905 | 12.22° C | 29% | 1005.6 hPa | 0 mm | - | - | - |
| 1777725005 | 12.22° C | 29% | 1005.3 hPa | 0 mm | - | - | - |
| 1777724105 | 11.67° C | 35% | 1005.5 hPa | 0 mm | - | - | - |
| 1777723205 | 11.67° C | 35% | 1005.5 hPa | 0 mm | - | - | - |
| 1777722305 | 11.67° C | 34% | 1005.5 hPa | 0 mm | - | - | - |
| 1777721405 | 12.22° C | 34% | 1005.3 hPa | 0 mm | - | - | - |
| 1777720505 | 11.67° C | 39% | 1005 hPa | 0 mm | - | - | - |
| 1777719606 | 11.67° C | 40% | 1004.8 hPa | 0 mm | - | - | - |
| 1777718706 | 13.33° C | 34% | 1004.6 hPa | 0 mm | - | - | - |
| 1777717805 | 13.33° C | 34% | 1004.5 hPa | 0 mm | - | - | - |
| 1777716905 | 13.33° C | 33% | 1004.3 hPa | 0 mm | - | - | - |
| 1777716005 | 13.33° C | 34% | 1004.4 hPa | 0 mm | - | - | - |
| 1777715105 | 13.33° C | 35% | 1004.2 hPa | 0 mm | - | - | - |
| 1777714205 | 13.89° C | 34% | 1003.9 hPa | 0 mm | - | - | - |
| 1777713305 | 13.89° C | 36% | 1004 hPa | 0 mm | - | - | - |
| 1777712406 | 14.44° C | 37% | 1003.9 hPa | 0 mm | - | - | - |
| 1777711505 | 14.44° C | 39% | 1003.5 hPa | 0 mm | - | - | - |
| 1777710605 | 15° C | 41% | 1003.6 hPa | 0 mm | - | - | - |
* Rain latest hour (hover to see other rain measurements)
** Current wind speed in m/s (hover to see current wind gust speed)